createdAt,value
2022-08-12T11:19:13.986Z,32.00
2022-08-12T11:20:15.083Z,32.57
2022-08-12T11:21:16.025Z,32.93
2022-08-12T11:22:13.934Z,33.49
2022-08-12T11:23:25.914Z,33.49
2022-08-12T11:24:30.028Z,33.45
2022-08-12T11:25:13.915Z,33.34
2022-08-12T11:26:13.898Z,32.94
2022-08-12T11:27:13.877Z,32.81
2022-08-12T11:28:13.896Z,32.81
2022-08-12T11:29:22.423Z,32.77
2022-08-12T11:30:31.331Z,32.57
2022-08-12T11:31:14.395Z,32.57
2022-08-12T11:32:13.830Z,32.89
2022-08-12T11:33:24.389Z,33.12
2022-08-12T11:34:51.477Z,33.34
2022-08-12T11:35:13.848Z,33.72
2022-08-12T11:36:14.610Z,33.56
2022-08-12T11:37:25.377Z,33.87
2022-08-12T11:38:13.734Z,33.97
2022-08-12T11:39:13.765Z,33.84
2022-08-12T11:40:13.749Z,33.81
2022-08-12T11:41:13.715Z,34.05
2022-08-12T11:42:13.709Z,33.88
2022-08-12T11:43:18.778Z,34.00
2022-08-12T11:44:35.549Z,34.00
2022-08-12T11:45:16.298Z,34.27
2022-08-12T11:46:13.657Z,33.78
2022-08-12T11:47:13.649Z,34.05
2022-08-12T11:48:15.257Z,34.03
2022-08-12T11:49:13.632Z,34.53
2022-08-12T11:50:19.100Z,34.75
2022-08-12T11:51:13.630Z,33.98
2022-08-12T11:52:35.270Z,33.75
2022-08-12T11:53:57.566Z,33.86
2022-08-12T11:54:14.782Z,33.75
2022-08-12T11:55:15.013Z,33.69
2022-08-12T11:56:13.587Z,33.61
2022-08-12T11:58:36.564Z,34.34
2022-08-12T11:59:28.634Z,33.66
2022-08-12T12:01:58.710Z,33.37
2022-08-12T12:02:17.553Z,33.61
2022-08-12T12:03:13.608Z,34.53
2022-08-12T12:04:28.983Z,34.59
2022-08-12T12:05:13.486Z,34.91
2022-08-12T12:06:16.214Z,35.07
2022-08-12T12:07:13.467Z,35.06
2022-08-12T12:08:40.430Z,35.26
2022-08-12T12:09:13.451Z,34.78
2022-08-12T12:10:13.454Z,33.49
2022-08-12T12:11:13.446Z,34.17
2022-08-12T12:12:13.427Z,35.06
2022-08-12T12:13:23.156Z,35.25
2022-08-12T12:14:13.423Z,34.92
2022-08-12T12:15:13.474Z,35.11
2022-08-12T12:16:13.414Z,35.77
2022-08-12T12:17:13.391Z,35.23
2022-08-12T12:18:13.380Z,35.75
2022-08-12T12:19:13.370Z,35.70
2022-08-12T12:20:13.364Z,35.74
2022-08-12T12:21:13.371Z,36.00
2022-08-12T12:22:15.823Z,35.59
2022-08-12T12:23:29.286Z,35.36
2022-08-12T12:24:13.337Z,34.72
2022-08-12T12:25:14.051Z,34.05
2022-08-12T12:26:34.931Z,34.19
2022-08-12T12:27:13.328Z,34.15
2022-08-12T12:28:36.702Z,34.05
2022-08-12T12:30:18.437Z,33.45
2022-08-12T12:30:25.214Z,33.60
2022-08-12T12:31:15.255Z,33.72
2022-08-12T12:32:13.269Z,33.79
2022-08-12T12:33:18.067Z,33.98
2022-08-12T12:34:13.239Z,34.12
2022-08-12T12:36:06.443Z,34.19
2022-08-12T12:36:20.129Z,35.06
2022-08-12T12:37:16.465Z,35.63
2022-08-12T12:38:13.224Z,35.82
2022-08-12T12:39:13.240Z,35.59
2022-08-12T12:40:13.381Z,35.29
2022-08-12T12:41:16.574Z,35.14
2022-08-12T12:42:42.498Z,35.29
2022-08-12T12:43:13.827Z,35.40
2022-08-12T12:44:13.393Z,36.01
2022-08-12T12:45:19.775Z,36.57
2022-08-12T12:46:13.138Z,36.90
2022-08-12T12:47:28.638Z,36.88
2022-08-12T12:48:13.133Z,37.24
2022-08-12T12:49:15.374Z,37.17
2022-08-12T12:50:13.109Z,37.28
2022-08-12T12:51:13.114Z,36.69
2022-08-12T12:52:19.687Z,35.71
2022-08-12T12:54:05.339Z,35.09
2022-08-12T12:54:13.088Z,35.28
2022-08-12T12:55:13.272Z,35.62
2022-08-12T12:56:13.073Z,35.43
2022-08-12T12:57:13.076Z,35.52
2022-08-12T12:58:13.048Z,35.77
2022-08-12T12:59:55.366Z,35.65
2022-08-12T13:00:13.063Z,35.56
2022-08-12T13:01:27.985Z,35.50
2022-08-12T13:02:13.062Z,35.72
2022-08-12T13:03:19.162Z,35.22
2022-08-12T13:04:14.620Z,35.23
2022-08-12T13:05:14.078Z,35.45
2022-08-12T13:06:12.984Z,35.66
2022-08-12T13:07:12.976Z,35.59
2022-08-12T13:08:12.982Z,35.70
2022-08-12T13:09:13.447Z,35.87
2022-08-12T13:10:13.295Z,36.16
2022-08-12T13:11:12.955Z,36.54
2022-08-12T13:12:12.950Z,37.15
2022-08-12T13:14:07.255Z,37.21
2022-08-12T13:14:28.161Z,37.57
2022-08-12T13:15:12.916Z,36.72
2022-08-12T13:16:14.291Z,36.80
2022-08-12T13:17:14.833Z,36.03
2022-08-12T13:18:12.909Z,35.38
2022-08-12T13:19:12.902Z,35.63
2022-08-12T13:20:12.901Z,35.84
2022-08-12T13:21:15.615Z,36.01
2022-08-12T13:22:12.878Z,36.47
2022-08-12T13:23:35.906Z,36.05
2022-08-12T13:24:12.858Z,36.17
2022-08-12T13:25:12.850Z,36.62
2022-08-12T13:26:14.578Z,36.95
2022-08-12T13:27:12.836Z,36.90
2022-08-12T13:28:12.842Z,36.71
2022-08-12T13:29:12.831Z,36.22
2022-08-12T13:30:12.826Z,36.71
2022-08-12T13:31:12.808Z,36.19
2022-08-12T13:32:28.331Z,36.05
2022-08-12T13:33:17.576Z,35.59
2022-08-12T13:34:34.258Z,35.71
2022-08-12T13:35:33.257Z,35.41
2022-08-12T13:36:18.273Z,35.90
2022-08-12T13:37:12.771Z,36.22
2022-08-12T13:38:12.775Z,36.03
2022-08-12T13:39:12.822Z,36.05
2022-08-12T13:40:12.754Z,35.40
2022-08-12T13:41:12.764Z,35.18
2022-08-12T13:42:14.249Z,35.29
2022-08-12T13:43:13.225Z,35.66
2022-08-12T13:44:12.754Z,36.15
2022-08-12T13:45:12.723Z,36.29
2022-08-12T13:46:12.732Z,36.64
2022-08-12T13:47:19.561Z,36.84
2022-08-12T13:48:12.707Z,35.72
2022-08-12T13:49:17.465Z,35.21
2022-08-12T13:50:12.704Z,35.40
2022-08-12T13:51:12.687Z,36.12
2022-08-12T13:52:13.845Z,36.49
2022-08-12T13:53:24.461Z,36.34
2022-08-12T13:54:14.174Z,37.00
2022-08-12T13:55:12.694Z,36.91
2022-08-12T13:56:12.659Z,37.27
2022-08-12T13:57:16.973Z,37.15
2022-08-12T13:58:12.789Z,36.20
2022-08-12T13:59:12.651Z,36.38
2022-08-12T14:00:12.660Z,36.60
2022-08-12T14:01:12.630Z,35.84
2022-08-12T14:02:12.696Z,35.36
2022-08-12T14:03:12.653Z,35.65
2022-08-12T14:04:12.692Z,35.84
2022-08-12T14:05:31.510Z,35.93
2022-08-12T14:06:15.445Z,36.31
2022-08-12T14:07:12.612Z,36.09
2022-08-12T14:08:12.607Z,36.38
2022-08-12T14:09:17.849Z,37.15
2022-08-12T14:10:16.059Z,37.60
2022-08-12T14:11:13.276Z,37.75
2022-08-12T14:12:16.351Z,38.00
2022-08-12T14:13:17.136Z,38.07
2022-08-12T14:14:13.070Z,38.34
2022-08-12T14:15:12.576Z,37.85
2022-08-12T14:16:14.428Z,37.67
2022-08-12T14:17:12.549Z,37.27
2022-08-12T14:18:13.123Z,36.75
2022-08-12T14:19:22.483Z,36.57
2022-08-12T14:20:12.539Z,36.53
2022-08-12T14:21:18.268Z,36.39
2022-08-12T14:22:12.538Z,36.38
2022-08-12T14:24:02.091Z,36.98
2022-08-12T14:24:12.525Z,36.76
2022-08-12T14:25:12.517Z,36.60
2022-08-12T14:26:13.611Z,36.75
2022-08-12T14:27:12.519Z,37.00
2022-08-12T14:28:12.516Z,37.24
2022-08-12T14:29:21.772Z,36.69
2022-08-12T14:30:15.304Z,36.69
2022-08-12T14:31:18.323Z,37.29
2022-08-12T14:32:16.568Z,37.78
2022-08-12T14:33:12.490Z,38.06
2022-08-12T14:34:12.497Z,38.42
2022-08-12T14:35:12.508Z,38.19
2022-08-12T14:36:12.858Z,37.64
2022-08-12T14:37:12.952Z,37.56
2022-08-12T14:38:12.484Z,37.78
2022-08-12T14:39:12.530Z,38.32
2022-08-12T14:40:18.378Z,38.04
2022-08-12T14:41:12.482Z,37.81
2022-08-12T14:42:12.475Z,38.16
2022-08-12T14:43:12.467Z,38.72
2022-08-12T14:44:57.001Z,39.21
2022-08-12T14:45:12.604Z,39.33
2022-08-12T14:46:12.462Z,38.26
2022-08-12T14:47:12.485Z,37.84
2022-08-12T14:48:12.459Z,37.03
2022-08-12T14:50:00.776Z,37.09
2022-08-12T14:50:58.856Z,36.69
2022-08-12T14:52:42.711Z,36.99
2022-08-12T14:53:11.602Z,36.34
2022-08-12T14:55:13.870Z,36.90
2022-08-12T14:57:23.201Z,36.35
2022-08-12T14:58:12.426Z,36.50
2022-08-12T14:59:20.674Z,36.64
2022-08-12T15:00:12.436Z,37.22
2022-08-12T15:01:12.455Z,37.96
2022-08-12T15:02:12.437Z,38.79
2022-08-12T15:03:12.426Z,38.63
2022-08-12T15:04:12.426Z,37.31
2022-08-12T15:05:12.416Z,37.44
2022-08-12T15:06:39.094Z,37.17
2022-08-12T15:07:34.109Z,36.88
2022-08-12T15:08:12.899Z,36.72
2022-08-12T15:09:12.488Z,37.13
2022-08-12T15:10:12.711Z,37.03
2022-08-12T15:11:12.414Z,37.41
2022-08-12T15:12:14.602Z,37.67
2022-08-12T15:13:12.438Z,37.59
2022-08-12T15:14:13.796Z,36.88
2022-08-12T15:15:12.412Z,36.90
2022-08-12T15:16:12.412Z,37.88
2022-08-12T15:17:12.410Z,38.22
2022-08-12T15:18:12.434Z,37.89
2022-08-12T15:20:27.912Z,37.57
2022-08-12T15:20:32.552Z,37.72
2022-08-12T15:21:12.413Z,38.22
2022-08-12T15:22:37.726Z,38.56
2022-08-12T15:23:18.047Z,38.72
2022-08-12T15:24:12.413Z,39.18
2022-08-12T15:25:17.826Z,38.87
2022-08-12T15:26:21.192Z,38.15
2022-08-12T15:27:12.410Z,38.31
2022-08-12T15:28:21.512Z,37.72
2022-08-12T15:29:12.442Z,37.49
2022-08-12T15:30:12.406Z,36.99
2022-08-12T15:31:27.362Z,37.63
2022-08-12T15:32:16.129Z,37.49
2022-08-12T15:33:18.766Z,36.90
2022-08-12T15:34:12.409Z,36.39
2022-08-12T15:35:12.400Z,36.69
2022-08-12T15:36:12.406Z,36.62
2022-08-12T15:37:12.402Z,37.00
2022-08-12T15:38:15.947Z,36.93
2022-08-12T15:39:16.829Z,37.13
2022-08-12T15:40:12.444Z,37.34
2022-08-12T15:41:12.401Z,37.13
2022-08-12T15:42:12.425Z,36.56
2022-08-12T15:43:12.402Z,36.22
2022-08-12T15:44:36.786Z,36.71
2022-08-12T15:45:12.411Z,36.49
2022-08-12T15:46:14.800Z,36.72
2022-08-12T15:47:12.416Z,37.07
2022-08-12T15:48:20.158Z,37.27
2022-08-12T15:49:16.929Z,37.46
2022-08-12T15:50:23.018Z,37.06
2022-08-12T15:51:12.411Z,37.18
2022-08-12T15:52:27.037Z,37.13
2022-08-12T15:53:14.420Z,36.53
2022-08-12T15:54:33.933Z,36.20
2022-08-12T15:55:12.405Z,36.32
2022-08-12T15:56:12.512Z,35.65
2022-08-12T15:57:17.007Z,35.94
2022-08-12T15:58:12.408Z,36.27
2022-08-12T15:59:12.415Z,37.12
2022-08-12T16:00:32.006Z,36.64
2022-08-12T16:01:12.403Z,36.64
2022-08-12T16:02:12.408Z,36.81
2022-08-12T16:03:13.696Z,35.77
2022-08-12T16:04:12.420Z,35.72
2022-08-12T16:06:11.280Z,35.33
2022-08-12T16:06:25.763Z,35.11
2022-08-12T16:07:12.436Z,35.16
2022-08-12T16:08:19.813Z,35.65
2022-08-12T16:09:12.473Z,35.84
2022-08-12T16:10:12.401Z,36.50
2022-08-12T16:11:15.322Z,37.27
2022-08-12T16:12:12.488Z,36.80
2022-08-12T16:13:12.412Z,37.07
2022-08-12T16:14:12.408Z,37.12
2022-08-12T16:15:13.436Z,36.35
2022-08-12T16:16:23.470Z,36.64
2022-08-12T16:17:15.466Z,36.87
2022-08-12T16:18:19.920Z,36.83
2022-08-12T16:20:02.365Z,36.95
2022-08-12T16:20:12.411Z,36.38
2022-08-12T16:21:50.452Z,36.41
2022-08-12T16:22:12.399Z,37.00
2022-08-12T16:23:36.206Z,37.20
2022-08-12T16:24:12.404Z,36.93
2022-08-12T16:25:12.418Z,37.39
2022-08-12T16:26:15.500Z,37.37
2022-08-12T16:27:12.403Z,37.02
2022-08-12T16:28:12.422Z,37.41
2022-08-12T16:29:15.488Z,36.71
2022-08-12T16:30:12.415Z,36.16
2022-08-12T16:31:16.970Z,36.20
2022-08-12T16:32:12.415Z,35.90
2022-08-12T16:33:12.448Z,35.28
2022-08-12T16:34:38.391Z,35.16
2022-08-12T16:35:16.408Z,34.94
2022-08-12T16:36:12.408Z,34.61
2022-08-12T16:37:12.420Z,34.91
2022-08-12T16:38:27.360Z,34.66
2022-08-12T16:39:12.457Z,34.59
2022-08-12T16:40:12.504Z,34.58
2022-08-12T16:41:12.431Z,34.50
2022-08-12T16:42:12.452Z,34.94
2022-08-12T16:43:13.037Z,35.15
2022-08-12T16:44:12.422Z,34.75
2022-08-12T16:45:13.722Z,34.64
2022-08-12T16:46:31.120Z,34.85
2022-08-12T16:47:12.405Z,35.02
2022-08-12T16:48:34.072Z,35.25
2022-08-12T16:49:13.782Z,35.15
2022-08-12T16:50:14.611Z,35.31
2022-08-12T16:51:12.464Z,35.18
2022-08-12T16:52:12.572Z,35.11
2022-08-12T16:53:12.415Z,35.19
2022-08-12T16:54:14.127Z,34.47
2022-08-12T16:55:13.080Z,34.17
2022-08-12T16:56:12.450Z,34.66
2022-08-12T16:57:12.414Z,33.94
2022-08-12T16:58:28.428Z,33.69
2022-08-12T16:59:16.147Z,33.54
2022-08-12T17:00:13.224Z,33.44
2022-08-12T17:01:14.051Z,33.22
2022-08-12T17:02:12.418Z,33.07
2022-08-12T17:03:12.388Z,32.93
2022-08-12T17:04:12.398Z,32.99
2022-08-12T17:05:12.385Z,33.06
2022-08-12T17:06:12.385Z,33.04
2022-08-12T17:07:12.401Z,32.57
2022-08-12T17:08:12.373Z,32.25
2022-08-12T17:09:17.327Z,32.11
2022-08-12T17:10:12.373Z,31.96
2022-08-12T17:11:12.370Z,32.03
2022-08-12T17:12:12.374Z,31.89
2022-08-12T17:13:12.352Z,31.88
2022-08-12T17:14:12.367Z,31.68
2022-08-12T17:15:50.374Z,31.50
2022-08-12T17:16:18.029Z,31.46
2022-08-12T17:17:26.205Z,31.46
2022-08-12T17:18:42.119Z,31.46
2022-08-12T17:19:12.318Z,31.48
2022-08-12T17:20:35.157Z,31.62
2022-08-12T17:21:12.315Z,31.50
2022-08-12T17:30:02.256Z,31.36
